createdAt,value
2023-04-15T00:00:02.802Z,68.55
2023-04-15T00:02:33.690Z,68.54
2023-04-15T00:05:04.809Z,68.60
2023-04-15T00:07:33.965Z,68.58
2023-04-15T00:10:04.888Z,68.76
2023-04-15T00:12:35.515Z,68.80
2023-04-15T00:15:09.587Z,68.97
2023-04-15T00:17:40.286Z,68.77
2023-04-15T00:20:13.453Z,68.77
2023-04-15T00:22:44.115Z,68.74
2023-04-15T00:25:14.848Z,68.68
2023-04-15T00:27:45.444Z,68.96
2023-04-15T00:30:16.047Z,69.24
2023-04-15T00:32:46.842Z,68.77
2023-04-15T00:35:17.596Z,69.17
2023-04-15T00:37:48.250Z,69.15
2023-04-15T00:40:21.210Z,69.12
2023-04-15T00:42:52.137Z,69.27
2023-04-15T00:45:23.107Z,69.40
2023-04-15T00:47:52.172Z,69.52
2023-04-15T00:50:22.904Z,69.68
2023-04-15T00:52:53.473Z,69.56
2023-04-15T00:55:30.822Z,69.60
2023-04-15T00:58:01.667Z,69.64
2023-04-15T01:00:32.292Z,70.01
2023-04-15T01:03:03.204Z,69.80
2023-04-15T01:05:32.378Z,69.66
2023-04-15T01:08:03.055Z,70.04
2023-04-15T01:10:34.914Z,69.98
2023-04-15T01:13:44.165Z,70.01
2023-04-15T01:16:15.765Z,69.80
2023-04-15T01:18:46.720Z,69.98
2023-04-15T01:21:17.813Z,69.72
2023-04-15T01:23:49.129Z,69.73
2023-04-15T01:26:20.127Z,70.04
2023-04-15T01:28:49.191Z,70.11
2023-04-15T01:31:19.865Z,70.44
2023-04-15T01:33:50.774Z,70.32
2023-04-15T01:36:21.449Z,70.41
2023-04-15T01:38:52.614Z,70.48
2023-04-15T01:41:27.381Z,70.76
2023-04-15T01:43:57.992Z,70.54
2023-04-15T01:46:28.742Z,70.74
2023-04-15T01:48:59.582Z,70.77
2023-04-15T01:51:30.390Z,70.56
2023-04-15T01:54:01.126Z,71.00
2023-04-15T01:56:31.724Z,70.75
2023-04-15T01:59:02.595Z,70.87
2023-04-15T02:01:31.727Z,70.89
2023-04-15T02:04:02.968Z,70.96
2023-04-15T02:06:33.567Z,71.53
2023-04-15T02:09:04.195Z,71.49
2023-04-15T02:11:34.842Z,71.48
2023-04-15T02:14:05.498Z,71.61
2023-04-15T02:16:36.113Z,71.42
2023-04-15T02:19:06.829Z,71.19
2023-04-15T02:21:37.406Z,71.27
2023-04-15T02:24:08.406Z,71.40
2023-04-15T02:26:37.417Z,71.23
2023-04-15T02:29:08.025Z,71.41
2023-04-15T02:31:38.755Z,71.14
2023-04-15T02:34:09.410Z,71.53
2023-04-15T02:36:40.018Z,71.58
2023-04-15T02:39:10.802Z,71.39
2023-04-15T02:41:41.385Z,71.39
2023-04-15T02:44:12.080Z,71.33
2023-04-15T02:46:42.682Z,71.54
2023-04-15T02:49:13.403Z,71.55
2023-04-15T02:51:44.276Z,71.79
2023-04-15T02:54:14.950Z,71.77
2023-04-15T02:56:45.664Z,72.06
2023-04-15T02:59:16.356Z,72.57
2023-04-15T03:01:47.113Z,72.21
2023-04-15T03:04:17.930Z,72.31
2023-04-15T03:06:48.543Z,72.78
2023-04-15T03:09:19.144Z,72.92
2023-04-15T03:11:49.813Z,73.60
2023-04-15T03:14:20.465Z,73.63
2023-04-15T03:16:51.052Z,73.81
2023-04-15T03:19:21.682Z,73.95
2023-04-15T03:21:52.391Z,74.57
2023-04-15T03:24:23.096Z,74.26
2023-04-15T03:26:53.716Z,74.39
2023-04-15T03:29:24.432Z,74.08
2023-04-15T03:31:55.298Z,74.41
2023-04-15T03:34:26.016Z,74.80
2023-04-15T03:36:57.252Z,74.65
2023-04-15T03:39:27.898Z,74.70
2023-04-15T03:41:58.544Z,74.68
2023-04-15T03:44:29.374Z,74.93
2023-04-15T03:46:59.997Z,75.14
2023-04-15T03:49:30.680Z,75.25
2023-04-15T03:52:01.363Z,75.34
2023-04-15T03:54:32.037Z,75.53
2023-04-15T03:57:03.027Z,75.23
2023-04-15T03:59:32.093Z,75.04
2023-04-15T04:02:02.829Z,74.97
2023-04-15T04:04:33.689Z,75.35
2023-04-15T04:07:04.400Z,75.25
2023-04-15T04:09:35.068Z,76.03
2023-04-15T04:12:05.724Z,75.59
2023-04-15T04:14:36.358Z,75.87
2023-04-15T04:17:06.965Z,75.88
2023-04-15T04:19:37.694Z,76.14
2023-04-15T04:22:08.369Z,75.98
2023-04-15T04:24:39.099Z,76.08
2023-04-15T04:27:09.710Z,76.03
2023-04-15T04:29:40.350Z,76.51
2023-04-15T04:32:11.223Z,76.91
2023-04-15T04:34:41.906Z,76.44
2023-04-15T04:37:12.519Z,76.83
2023-04-15T04:39:43.231Z,76.30
2023-04-15T04:42:13.843Z,76.07
2023-04-15T04:44:44.486Z,76.75
2023-04-15T04:47:15.128Z,76.76
2023-04-15T04:49:45.786Z,76.89
2023-04-15T04:52:16.422Z,77.18
2023-04-15T04:54:47.085Z,77.40
2023-04-15T04:57:17.683Z,77.15
2023-04-15T04:59:48.377Z,77.65
2023-04-15T05:02:19.171Z,76.91
2023-04-15T05:04:49.864Z,77.40
2023-04-15T05:07:20.446Z,77.42
2023-04-15T05:09:51.443Z,77.57
2023-04-15T05:12:22.226Z,77.86
2023-04-15T05:14:52.860Z,77.66
2023-04-15T05:17:23.583Z,78.11
2023-04-15T05:19:54.314Z,78.71
2023-04-15T05:22:24.943Z,78.42
2023-04-15T05:24:55.633Z,77.82
2023-04-15T05:27:26.330Z,78.90
2023-04-15T05:29:56.991Z,79.13
2023-04-15T05:32:27.616Z,79.76
2023-04-15T05:34:58.546Z,80.00
2023-04-15T05:37:27.632Z,79.61
2023-04-15T05:39:58.253Z,80.29
2023-04-15T05:42:29.001Z,80.16
2023-04-15T05:44:59.627Z,81.05
2023-04-15T05:47:30.290Z,80.98
2023-04-15T05:50:00.965Z,81.27
2023-04-15T05:52:31.685Z,81.09
2023-04-15T05:55:02.375Z,81.68
2023-04-15T05:57:32.961Z,81.68
2023-04-15T06:00:04.020Z,82.82
2023-04-15T06:02:33.079Z,82.38
2023-04-15T06:05:04.171Z,81.63
2023-04-15T06:07:35.146Z,81.77
2023-04-15T06:10:07.734Z,82.63
2023-04-15T06:12:38.544Z,82.97
2023-04-15T06:15:11.852Z,83.17
2023-04-15T06:17:42.539Z,83.37
2023-04-15T06:20:14.380Z,82.54
2023-04-15T06:22:45.041Z,81.97
2023-04-15T06:25:15.769Z,83.07
2023-04-15T06:27:46.353Z,82.76
2023-04-15T06:30:17.283Z,82.68
2023-04-15T06:32:48.355Z,82.76
2023-04-15T06:35:17.453Z,83.02
2023-04-15T06:37:48.036Z,83.23
2023-04-15T06:40:18.793Z,82.77
2023-04-15T06:42:49.504Z,83.27
2023-04-15T06:45:20.544Z,83.08
2023-04-15T06:47:49.615Z,83.40
2023-04-15T06:50:20.323Z,83.35
2023-04-15T06:52:50.983Z,82.77
2023-04-15T06:55:21.893Z,83.16
2023-04-15T06:57:52.494Z,83.24
2023-04-15T07:00:23.314Z,83.08
2023-04-15T07:02:54.073Z,82.78
2023-04-15T07:05:24.730Z,83.17
2023-04-15T07:07:55.470Z,83.98
2023-04-15T07:10:26.100Z,83.51
2023-04-15T07:12:56.915Z,83.97
2023-04-15T07:15:27.604Z,83.73
2023-04-15T07:17:58.300Z,83.10
2023-04-15T07:20:28.995Z,83.92
2023-04-15T07:22:59.861Z,83.80
2023-04-15T07:25:30.597Z,83.15
2023-04-15T07:28:01.268Z,83.11
2023-04-15T07:30:32.276Z,83.12
2023-04-15T07:33:01.388Z,83.56
2023-04-15T07:35:32.056Z,83.54
2023-04-15T07:38:02.660Z,82.87
2023-04-15T07:40:33.360Z,83.32
2023-04-15T07:43:04.000Z,83.10
2023-04-15T07:45:34.717Z,82.97
2023-04-15T07:48:07.559Z,82.78
2023-04-15T07:50:38.355Z,82.47
2023-04-15T07:53:09.065Z,82.52
2023-04-15T07:55:39.714Z,82.27
2023-04-15T07:58:10.432Z,82.25
2023-04-15T08:00:41.212Z,82.25
2023-04-15T08:03:43.102Z,81.87
2023-04-15T08:06:13.916Z,81.89
2023-04-15T08:08:44.525Z,81.56
2023-04-15T08:11:15.192Z,81.31
2023-04-15T08:13:46.187Z,81.04
2023-04-15T08:16:16.789Z,80.93
2023-04-15T08:18:47.816Z,80.97
2023-04-15T08:21:16.895Z,80.82
2023-04-15T08:23:49.388Z,80.80
2023-04-15T08:26:21.330Z,80.76
2023-04-15T08:28:52.145Z,80.70
2023-04-15T08:31:22.919Z,80.58
2023-04-15T08:33:53.774Z,80.55
2023-04-15T08:36:24.923Z,80.35
2023-04-15T08:38:55.657Z,80.41
2023-04-15T08:41:27.528Z,80.32
2023-04-15T08:44:02.052Z,80.15
2023-04-15T08:46:33.444Z,80.06
2023-04-15T08:49:08.670Z,80.49
2023-04-15T08:51:40.097Z,80.36
2023-04-15T08:54:11.381Z,80.08
2023-04-15T08:56:42.111Z,80.10
2023-04-15T08:59:13.140Z,79.89
2023-04-15T09:01:44.127Z,80.21
2023-04-15T09:04:14.836Z,79.71
2023-04-15T09:06:45.593Z,79.26
2023-04-15T09:09:16.205Z,78.43
2023-04-15T09:11:46.869Z,78.86
2023-04-15T09:14:17.505Z,78.73
2023-04-15T09:17:01.636Z,77.76
2023-04-15T09:19:32.765Z,77.47
2023-04-15T09:22:04.251Z,77.66
2023-04-15T09:24:40.272Z,77.26
2023-04-15T09:27:10.982Z,76.91
2023-04-15T09:29:42.654Z,76.92
2023-04-15T09:32:14.549Z,76.51
2023-04-15T09:34:45.487Z,75.14
2023-04-15T09:37:24.620Z,74.92
2023-04-15T09:40:02.067Z,75.51
2023-04-15T09:42:33.336Z,75.27
2023-04-15T09:45:12.532Z,75.80
2023-04-15T09:47:43.262Z,74.47
2023-04-15T09:50:13.914Z,73.77
2023-04-15T09:52:45.638Z,74.03
2023-04-15T09:55:18.333Z,75.13
2023-04-15T09:57:49.089Z,74.46
2023-04-15T10:00:19.922Z,73.88
2023-04-15T10:02:49.288Z,73.90
2023-04-15T10:05:20.575Z,73.04
2023-04-15T10:07:51.562Z,73.43
2023-04-15T10:10:21.103Z,74.32
2023-04-15T10:12:54.489Z,71.50
2023-04-15T10:15:26.748Z,71.76
2023-04-15T10:17:59.022Z,70.59
2023-04-15T10:20:30.545Z,71.60
2023-04-15T10:23:01.918Z,70.77
2023-04-15T10:25:35.021Z,70.24
2023-04-15T10:28:06.861Z,68.45
2023-04-15T10:30:38.660Z,71.38
2023-04-15T10:33:11.021Z,70.28
2023-04-15T10:35:42.433Z,67.33
2023-04-15T10:38:33.949Z,69.56
2023-04-15T10:41:20.411Z,69.08
2023-04-15T10:43:53.923Z,69.59
2023-04-15T10:46:34.992Z,66.58
2023-04-15T10:49:08.346Z,68.22
2023-04-15T10:51:40.903Z,66.92
2023-04-15T10:54:16.940Z,66.51
2023-04-15T10:57:06.769Z,67.80
2023-04-15T10:59:59.358Z,68.42
2023-04-15T11:02:42.618Z,65.62
2023-04-15T11:05:14.635Z,66.91
2023-04-15T11:07:56.492Z,67.56
2023-04-15T11:10:53.419Z,67.61
2023-04-15T11:13:29.576Z,67.59
2023-04-15T11:16:02.157Z,67.79
2023-04-15T11:18:36.295Z,68.07
2023-04-15T11:21:08.611Z,67.04
2023-04-15T11:23:41.847Z,68.38
2023-04-15T11:26:13.272Z,67.40
2023-04-15T11:28:45.207Z,67.93
2023-04-15T11:31:18.149Z,68.28
2023-04-15T11:33:55.724Z,68.32
2023-04-15T11:36:29.016Z,68.73
2023-04-15T11:39:00.493Z,68.92
2023-04-15T11:41:32.297Z,68.85
2023-04-15T11:44:03.158Z,68.55
2023-04-15T11:46:34.115Z,68.44
2023-04-15T11:49:04.739Z,67.62
2023-04-15T11:51:36.001Z,67.02
2023-04-15T11:54:06.997Z,67.58
2023-04-15T11:56:37.910Z,68.34
2023-04-15T11:59:08.598Z,68.77
2023-04-15T12:01:40.063Z,67.87
2023-04-15T12:04:15.129Z,67.74
2023-04-15T12:06:46.561Z,67.37
2023-04-15T12:09:17.382Z,67.82
2023-04-15T12:11:48.987Z,67.40
2023-04-15T12:14:24.132Z,66.10
2023-04-15T12:16:58.552Z,66.47
2023-04-15T12:19:30.778Z,67.28
2023-04-15T12:22:03.647Z,67.39
2023-04-15T12:24:35.642Z,67.50
2023-04-15T12:27:07.519Z,66.98
2023-04-15T12:29:40.128Z,65.67
2023-04-15T12:32:12.367Z,65.35
2023-04-15T12:34:44.747Z,65.67
2023-04-15T12:37:15.939Z,65.26
2023-04-15T12:39:48.148Z,63.52
2023-04-15T12:42:19.489Z,64.18
2023-04-15T12:44:50.138Z,65.14
2023-04-15T12:47:20.825Z,66.09
2023-04-15T12:49:51.485Z,64.78
2023-04-15T12:52:22.202Z,65.09
2023-04-15T12:54:53.200Z,65.41
2023-04-15T12:57:23.876Z,65.09
2023-04-15T12:59:54.524Z,65.43
2023-04-15T13:02:25.298Z,65.40
2023-04-15T13:04:56.259Z,65.53
2023-04-15T13:07:27.098Z,66.02
2023-04-15T13:09:56.218Z,66.58
2023-04-15T13:12:27.579Z,66.41
2023-04-15T13:14:58.185Z,66.36
2023-04-15T13:17:28.896Z,66.82
2023-04-15T13:19:59.555Z,67.31
2023-04-15T13:22:30.214Z,67.43
2023-04-15T13:25:22.800Z,67.41
2023-04-15T13:27:53.435Z,67.78
2023-04-15T13:30:24.034Z,67.80
2023-04-15T13:32:55.002Z,67.73
2023-04-15T13:35:24.098Z,67.73
2023-04-15T13:37:55.324Z,67.64
2023-04-15T13:40:26.170Z,68.06
2023-04-15T13:42:56.768Z,68.47
2023-04-15T13:45:27.627Z,68.71
2023-04-15T13:47:56.990Z,69.04
2023-04-15T13:50:27.702Z,68.91
2023-04-15T13:52:58.368Z,69.80
2023-04-15T13:55:29.651Z,69.55
2023-04-15T13:58:00.333Z,69.98
2023-04-15T14:00:30.971Z,70.03
2023-04-15T14:03:01.752Z,70.17
2023-04-15T14:05:31.007Z,70.40
2023-04-15T14:08:02.262Z,70.37
2023-04-15T14:10:32.881Z,70.93
2023-04-15T14:13:03.613Z,71.01
2023-04-15T14:15:34.228Z,71.26
2023-04-15T14:18:05.372Z,71.18
2023-04-15T14:20:36.176Z,70.98
2023-04-15T14:23:06.818Z,70.91
2023-04-15T14:25:37.491Z,70.94
2023-04-15T14:28:08.173Z,70.91
2023-04-15T14:30:38.876Z,71.27
2023-04-15T14:33:09.598Z,71.45
2023-04-15T14:35:40.340Z,71.30
2023-04-15T14:38:11.493Z,71.30
2023-04-15T14:40:42.704Z,70.98
2023-04-15T14:43:13.789Z,70.45
2023-04-15T14:45:44.585Z,70.52
2023-04-15T14:54:43.812Z,70.61
2023-04-15T14:57:14.478Z,70.51
2023-04-15T14:59:45.061Z,70.70
2023-04-15T15:02:26.217Z,70.61
2023-04-15T15:05:08.319Z,70.16
2023-04-15T15:07:40.191Z,70.45
2023-04-15T15:10:11.006Z,70.58
2023-04-15T15:12:41.667Z,70.66
2023-04-15T15:15:25.057Z,70.83
2023-04-15T15:17:59.773Z,70.83
2023-04-15T15:20:30.991Z,70.78
2023-04-15T15:23:01.701Z,71.29
2023-04-15T15:25:32.335Z,71.49
2023-04-15T15:28:03.117Z,71.70
2023-04-15T15:30:33.841Z,71.88
2023-04-15T15:33:04.558Z,71.89
2023-04-15T15:35:35.414Z,71.85
2023-04-15T15:38:06.163Z,71.80
2023-04-15T15:40:36.812Z,71.77
2023-04-15T15:43:07.466Z,71.94
2023-04-15T15:45:38.198Z,72.01
2023-04-15T15:48:10.677Z,71.99
2023-04-15T15:53:30.452Z,72.32
2023-04-15T15:56:01.145Z,72.42
2023-04-15T15:58:32.165Z,72.55
2023-04-15T16:01:02.941Z,72.66
2023-04-15T16:03:33.449Z,72.74
2023-04-15T16:06:05.367Z,73.39
2023-04-15T16:08:36.069Z,73.23
2023-04-15T16:11:06.879Z,73.37
2023-04-15T16:13:37.655Z,73.20
2023-04-15T16:16:09.102Z,73.42
2023-04-15T16:18:39.825Z,73.55
2023-04-15T16:21:10.667Z,72.95
2023-04-15T16:23:42.070Z,73.08
2023-04-15T16:26:12.970Z,72.97
2023-04-15T16:28:42.122Z,73.12
2023-04-15T16:31:14.432Z,73.51
2023-04-15T16:33:45.113Z,73.67
2023-04-15T16:36:15.832Z,73.79
2023-04-15T16:38:46.497Z,73.71
2023-04-15T16:41:17.937Z,73.75
2023-04-15T16:43:48.615Z,73.76
2023-04-15T16:46:19.383Z,73.68
2023-04-15T16:48:50.058Z,73.87
2023-04-15T16:51:20.856Z,74.03
2023-04-15T16:53:51.551Z,74.13
2023-04-15T16:56:22.363Z,74.27
2023-04-15T16:58:52.985Z,74.18
2023-04-15T17:01:24.029Z,74.12
2023-04-15T17:03:56.117Z,74.16
2023-04-15T17:06:27.305Z,74.38
2023-04-15T17:08:58.131Z,74.44
2023-04-15T17:11:29.115Z,74.63
2023-04-15T17:13:59.826Z,74.95
2023-04-15T17:16:30.712Z,75.08
2023-04-15T17:19:01.445Z,75.16
2023-04-15T17:21:32.214Z,75.40
2023-04-15T17:24:02.946Z,75.58
2023-04-15T17:26:33.635Z,75.86
2023-04-15T17:29:04.475Z,76.11
2023-04-15T17:31:35.539Z,76.11
2023-04-15T17:34:06.911Z,76.23
2023-04-15T17:36:38.435Z,76.40
2023-04-15T17:39:09.147Z,76.43
2023-04-15T17:41:39.834Z,76.46
2023-04-15T17:44:10.505Z,77.02
2023-04-15T17:46:41.209Z,76.82
2023-04-15T17:49:11.948Z,77.15
2023-04-15T17:51:42.694Z,77.99
2023-04-15T17:54:13.408Z,78.04
2023-04-15T17:56:44.115Z,77.94
2023-04-15T17:59:14.873Z,78.28
2023-04-15T18:01:45.745Z,78.36
2023-04-15T18:04:14.991Z,78.47
2023-04-15T18:06:45.838Z,79.12
2023-04-15T18:09:16.527Z,79.26
2023-04-15T18:11:47.180Z,80.17
2023-04-15T18:14:27.095Z,80.14
2023-04-15T18:17:04.997Z,80.47
2023-04-15T18:19:35.839Z,79.82
2023-04-15T18:22:06.767Z,79.80
2023-04-15T18:24:37.427Z,79.63
2023-04-15T18:27:06.879Z,80.01
2023-04-15T18:29:37.932Z,80.73
2023-04-15T18:32:08.665Z,80.80
2023-04-15T18:34:39.708Z,80.96
2023-04-15T18:37:10.936Z,80.48
2023-04-15T18:39:41.684Z,80.17
2023-04-15T18:42:11.018Z,80.19
2023-04-15T18:44:41.605Z,80.07
2023-04-15T18:47:12.703Z,80.10
2023-04-15T18:49:43.716Z,79.85
2023-04-15T18:52:14.380Z,79.95
2023-04-15T18:54:45.143Z,80.08
2023-04-15T18:57:14.661Z,80.10
2023-04-15T18:59:51.129Z,80.21
2023-04-15T19:02:21.823Z,80.12
2023-04-15T19:04:53.025Z,80.16
2023-04-15T19:07:24.350Z,80.13
2023-04-15T19:09:55.029Z,80.06
2023-04-15T19:12:25.761Z,79.97
2023-04-15T19:14:56.732Z,79.91
2023-04-15T19:17:27.793Z,79.82
2023-04-15T19:19:58.571Z,79.95
2023-04-15T19:22:31.110Z,79.87
2023-04-15T19:25:02.106Z,80.04
2023-04-15T19:27:32.792Z,80.03
2023-04-15T19:30:03.804Z,80.07
2023-04-15T19:32:35.436Z,80.21
2023-04-15T19:35:08.362Z,80.17
2023-04-15T19:37:40.950Z,80.15
2023-04-15T19:40:12.236Z,80.16
2023-04-15T19:42:43.179Z,80.30
2023-04-15T19:45:14.151Z,80.31
2023-04-15T19:47:43.634Z,80.31
2023-04-15T19:50:14.567Z,80.28
2023-04-15T19:52:45.244Z,80.37
2023-04-15T19:55:15.982Z,80.31
2023-04-15T19:57:46.779Z,80.30
2023-04-15T20:00:17.427Z,80.32
2023-04-15T20:02:48.461Z,80.37
2023-04-15T20:05:19.359Z,80.23
2023-04-15T20:07:50.094Z,80.06
2023-04-15T20:10:22.291Z,80.15
2023-04-15T20:12:53.486Z,80.08
2023-04-15T20:15:24.380Z,80.07
2023-04-15T20:17:55.189Z,80.14
2023-04-15T20:20:25.900Z,80.01
2023-04-15T20:22:56.513Z,79.86
2023-04-15T20:25:27.250Z,80.03
2023-04-15T20:28:00.310Z,79.96
2023-04-15T20:30:31.591Z,79.74
2023-04-15T20:33:02.361Z,79.72
2023-04-15T20:35:33.027Z,79.82
2023-04-15T20:38:03.829Z,79.70
2023-04-15T20:40:32.979Z,79.82
2023-04-15T20:43:03.858Z,79.88
2023-04-15T20:45:36.792Z,80.10
2023-04-15T20:48:08.116Z,80.22
2023-04-15T20:50:38.865Z,80.19
2023-04-15T20:53:09.570Z,80.08
2023-04-15T20:55:40.187Z,80.23
2023-04-15T20:58:10.974Z,80.21
2023-04-15T21:00:41.653Z,80.31
2023-04-15T21:03:12.450Z,80.25
2023-04-15T21:05:43.154Z,80.24
2023-04-15T21:08:13.903Z,80.17
2023-04-15T21:10:44.858Z,80.09
2023-04-15T21:13:13.933Z,80.11
2023-04-15T21:15:44.537Z,80.17
2023-04-15T21:18:15.249Z,80.12
2023-04-15T21:20:46.034Z,80.11
2023-04-15T21:23:16.685Z,80.12
2023-04-15T21:25:47.324Z,80.22
2023-04-15T21:28:20.776Z,80.46
2023-04-15T21:30:51.399Z,80.64
2023-04-15T21:33:22.138Z,80.59
2023-04-15T21:35:52.935Z,80.48
2023-04-15T21:38:24.679Z,80.52
2023-04-15T21:40:55.364Z,80.46
2023-04-15T21:43:26.048Z,80.38
2023-04-15T21:46:23.612Z,80.41
2023-04-15T21:48:47.684Z,80.55
2023-04-15T21:51:17.356Z,80.82
2023-04-15T21:53:48.020Z,80.77
2023-04-15T21:56:18.678Z,80.76
2023-04-15T21:58:49.356Z,80.53
2023-04-15T22:01:19.993Z,80.56
2023-04-15T22:03:51.131Z,80.64
2023-04-15T22:06:21.980Z,80.69
2023-04-15T22:08:57.413Z,80.50
2023-04-15T22:11:28.877Z,80.52
2023-04-15T22:14:00.173Z,80.67
2023-04-15T22:16:31.124Z,80.50
2023-04-15T22:19:01.802Z,80.49
2023-04-15T22:21:32.999Z,80.48
2023-04-15T22:24:38.792Z,80.35
2023-04-15T22:26:54.340Z,80.43
2023-04-15T22:29:25.141Z,80.28
2023-04-15T22:31:55.923Z,80.27
2023-04-15T22:34:26.622Z,80.33
2023-04-15T22:36:57.254Z,80.17
2023-04-15T22:39:27.992Z,80.23
2023-04-15T22:41:58.588Z,80.23
2023-04-15T22:44:29.322Z,80.22
2023-04-15T22:46:59.986Z,80.20
2023-04-15T22:49:30.629Z,80.36
2023-04-15T22:52:01.216Z,80.51
2023-04-15T22:54:31.930Z,80.46
2023-04-15T22:57:03.111Z,80.48
2023-04-15T22:59:33.755Z,80.52
2023-04-15T23:02:04.467Z,80.55
2023-04-15T23:04:35.330Z,80.50
2023-04-15T23:07:04.650Z,80.46
2023-04-15T23:09:35.302Z,80.50
2023-04-15T23:12:06.767Z,80.36
2023-04-15T23:14:37.386Z,80.34
2023-04-15T23:17:08.039Z,80.17
2023-04-15T23:19:38.645Z,80.15
2023-04-15T23:22:09.261Z,80.34
2023-04-15T23:24:40.022Z,80.41
2023-04-15T23:27:10.587Z,80.29
2023-04-15T23:29:41.255Z,80.50
2023-04-15T23:32:11.948Z,80.39
2023-04-15T23:34:42.574Z,80.47
2023-04-15T23:37:13.178Z,80.51
2023-04-15T23:39:43.944Z,80.50
2023-04-15T23:42:14.625Z,80.65
2023-04-15T23:44:45.355Z,80.50
2023-04-15T23:47:16.047Z,80.59
2023-04-15T23:49:46.709Z,80.60
2023-04-15T23:52:17.693Z,80.75
2023-04-15T23:54:48.733Z,80.96
2023-04-15T23:57:19.394Z,80.88
2023-04-15T23:59:50.088Z,80.94
